Langdon, ND

6:14 AM CDT on September 30, 2016 (GMT -0500)
Langdon

Weather History for KD55 - January, 2013

Change the Weather History Date:

Tuesday, January 15, 2013

  Actual Average (KDVL) Record (KDVL)
Temperature  
Mean Temperature 14 °F -  
Max Temperature 32 °F 18 °F 45 °F (1973)
Min Temperature -4 °F 0 °F -33 °F (1971)
Degree Days  
Heating Degree Days 51    
Moisture  
Dew Point 7 °F    
Average Humidity 89    
Maximum Humidity 100    
Minimum Humidity 78    
Precipitation  
Precipitation 0.03 in - - ()
Sea Level Pressure  
Sea Level Pressure 29.73 in    
Wind  
Wind Speed 14 mph (SW)    
Max Wind Speed 28 mph    
Max Gust Speed 36 mph    
Visibility 8 miles    
Events Rain , Snow    
Averages and records for this station are not official NWS values.
T = Trace of Precipitation, MM = Missing Value Source: NWS Daily Summary

Daily Weather History Graph

Daily Weather History Graph

Search for Another Location

Airport or City:

Trip Planner

Search our weather history database for the weather conditions in past years. The results will help you decide how hot, cold, wet, or windy it might be!

Date:

Astronomy

Jan. 15, 2013 Rise Set
Actual Time 8:21 AM CST 5:05 PM CST
Civil Twilight 7:45 AM CST 5:41 PM CST
Nautical Twilight 7:06 AM CST 6:20 PM CST
Astronomical Twilight 6:28 AM CST 6:58 PM CST
Moon 10:01 AM CST (1/15) 10:26 PM CST (1/15)
Length of Visible Light 9h 55m
Length of Day
8h 44m
Waxing Crescent, 19% of the Moon is Illuminated
Jan 15
Waxing Crescent
Jan 18
First Quarter
Jan 26
Full
Feb 3
Last Quarter
Feb 10
New

Hourly Weather History & Observations

Time (CST) Temp. Windchill Dew Point Humidity Pressure Visibility Wind Dir Wind Speed Gust Speed Precip Events Conditions
12:15 AM -0.4 °F -13.4 °F -4.0 °F 85% 30.01 in 10.0 mi SSW 6.9 mph - N/A   Overcast
12:35 AM -0.4 °F -15.7 °F -4.0 °F 85% 30.00 in 10.0 mi South 9.2 mph - N/A   Overcast
12:55 AM -0.4 °F -13.4 °F -4.0 °F 85% 29.99 in 10.0 mi SSW 6.9 mph - N/A   Overcast
1:15 AM -0.4 °F -15.7 °F -4.0 °F 85% 29.98 in 10.0 mi SSW 9.2 mph - N/A   Overcast
1:35 AM -0.4 °F -17.6 °F -2.2 °F 92% 29.98 in 10.0 mi SSW 11.5 mph - N/A   Overcast
2:15 AM -0.4 °F -18.4 °F -2.2 °F 92% 29.97 in 10.0 mi SSW 12.7 mph - N/A   Overcast
2:35 AM -0.4 °F -19.2 °F -2.2 °F 92% 29.96 in 10.0 mi SSW 13.8 mph - N/A   Overcast
2:55 AM 1.4 °F -16.9 °F -2.2 °F 85% 29.96 in 10.0 mi SSW 13.8 mph - N/A   Overcast
3:15 AM -0.4 °F -17.6 °F -2.2 °F 92% 29.95 in 10.0 mi SSW 11.5 mph - N/A   Mostly Cloudy
3:35 AM -0.4 °F -18.4 °F -4.0 °F 85% 29.94 in 10.0 mi South 12.7 mph - N/A   Scattered Clouds
3:55 AM -0.4 °F -17.6 °F -4.0 °F 85% 29.93 in 10.0 mi South 11.5 mph - N/A   Clear
4:15 AM -0.4 °F -17.6 °F -4.0 °F 85% 29.92 in 10.0 mi South 11.5 mph - N/A   Clear
4:55 AM 1.4 °F -14.5 °F -0.4 °F 92% 29.90 in 10.0 mi SSW 10.4 mph - N/A   Overcast
5:15 AM 3.2 °F -13.1 °F -0.4 °F 85% 29.89 in 10.0 mi SSW 11.5 mph - N/A   Overcast
5:35 AM 3.2 °F -12.2 °F -0.4 °F 85% 29.88 in 10.0 mi SSW 10.4 mph - N/A   Overcast
5:55 AM 3.2 °F -12.2 °F -0.4 °F 85% 29.88 in 10.0 mi SSW 10.4 mph - N/A   Overcast
6:15 AM 1.4 °F -15.3 °F -2.2 °F 85% 29.87 in 10.0 mi SSW 11.5 mph - N/A   Mostly Cloudy
6:35 AM -0.4 °F -17.6 °F -4.0 °F 85% 29.87 in 10.0 mi SSW 11.5 mph - N/A   Mostly Cloudy
6:55 AM -0.4 °F -17.6 °F -4.0 °F 85% 29.86 in 10.0 mi SSW 11.5 mph - N/A   Scattered Clouds
7:15 AM -2.2 °F -19.9 °F -5.8 °F 85% 29.85 in 10.0 mi SSW 11.5 mph - N/A   Clear
7:35 AM -2.2 °F -18.9 °F -7.6 °F 78% 29.86 in 10.0 mi SSW 10.4 mph - N/A   Clear
7:55 AM -2.2 °F -19.9 °F -7.6 °F 78% 29.86 in 10.0 mi SSW 11.5 mph - N/A   Clear
8:15 AM -4.0 °F -23.0 °F -7.6 °F 85% 29.86 in 10.0 mi SSW 12.7 mph - N/A   Clear
8:35 AM -4.0 °F -22.1 °F -9.4 °F 78% 29.86 in 10.0 mi SSW 11.5 mph - N/A   Clear
8:55 AM -4.0 °F -23.0 °F -9.4 °F 78% 29.86 in 10.0 mi SSW 12.7 mph - N/A   Clear
9:15 AM -4.0 °F -22.1 °F -9.4 °F 78% 29.85 in 10.0 mi SSW 11.5 mph - N/A   Clear
9:35 AM -4.0 °F -23.7 °F -7.6 °F 85% 29.85 in 10.0 mi SSW 13.8 mph - N/A   Clear
9:55 AM -2.2 °F -20.7 °F -5.8 °F 85% 29.84 in 10.0 mi SSW 12.7 mph - N/A   Clear
10:15 AM -2.2 °F -21.5 °F -5.8 °F 85% 29.83 in 10.0 mi SSW 13.8 mph - N/A   Clear
10:35 AM -0.4 °F -18.4 °F -4.0 °F 85% 29.81 in 10.0 mi SSW 12.7 mph - N/A   Clear
10:55 AM -0.4 °F -19.2 °F -2.2 °F 92% 29.81 in 10.0 mi SSW 13.8 mph - N/A   Clear
11:15 AM 1.4 °F -16.9 °F -2.2 °F 85% 29.80 in 10.0 mi SSW 13.8 mph - N/A   Clear
11:35 AM 1.4 °F -16.9 °F -0.4 °F 92% 29.79 in 10.0 mi SW 13.8 mph - N/A   Clear
11:55 AM 5.0 °F -13.0 °F -0.4 °F 78% 29.78 in 10.0 mi SW 15.0 mph - N/A   Clear
12:15 PM 5.0 °F -14.2 °F -0.4 °F 78% 29.77 in 10.0 mi SW 17.3 mph - N/A   Clear
12:35 PM 6.8 °F -11.3 °F 1.4 °F 79% 29.76 in 10.0 mi SW 16.1 mph - N/A   Clear
12:55 PM 6.8 °F -11.3 °F 3.2 °F 85% 29.74 in 10.0 mi SW 16.1 mph - N/A   Clear
1:15 PM 8.6 °F -9.5 °F 5.0 °F 85% 29.73 in 10.0 mi SW 17.3 mph - N/A   Clear
1:35 PM 8.6 °F -10.0 °F 5.0 °F 85% 29.71 in 10.0 mi SSW 18.4 mph - N/A   Clear
1:55 PM 10.4 °F -7.2 °F 6.8 °F 85% 29.69 in 10.0 mi SSW 17.3 mph - N/A   Clear
2:15 PM 10.4 °F -8.2 °F 6.8 °F 85% 29.69 in 10.0 mi SW 19.6 mph - N/A   Clear
2:35 PM 10.4 °F -8.2 °F 6.8 °F 85% 29.69 in 10.0 mi SW 19.6 mph - N/A   Clear
2:55 PM 12.2 °F -5.8 °F 8.6 °F 85% 29.67 in 10.0 mi SW 19.6 mph - N/A   Clear
3:15 PM 14.0 °F -3.4 °F 8.6 °F 79% 29.67 in 10.0 mi SSW 19.6 mph - N/A   Partly Cloudy
3:35 PM 14.0 °F -3.0 °F 10.4 °F 86% 29.66 in 10.0 mi SSW 18.4 mph - N/A   Partly Cloudy
3:55 PM 15.8 °F -1.5 °F 12.2 °F 86% 29.65 in 10.0 mi SSW 20.7 mph - N/A   Mostly Cloudy
4:15 PM 15.8 °F -1.5 °F 14.0 °F 93% 29.62 in 10.0 mi SSW 20.7 mph - N/A   Mostly Cloudy
4:35 PM 17.6 °F 0.1 °F 14.0 °F 86% 29.60 in 9.0 mi SSW 23.0 mph - N/A   Overcast
4:55 PM 17.6 °F -0.3 °F 15.8 °F 93% 29.58 in 5.0 mi SSW 24.2 mph 29.9 mph N/A   Overcast
5:15 PM 19.4 °F 1.8 °F 17.6 °F 93% 29.57 in 2.0 mi SW 25.3 mph - N/A   Overcast
5:35 PM 19.4 °F 1.4 °F 17.6 °F 93% 29.56 in 1.2 mi SW 26.5 mph 33.4 mph N/A Snow Light Snow
5:55 PM 19.4 °F 1.4 °F 19.4 °F 100% 29.54 in 2.5 mi SSW 26.5 mph - N/A   Mostly Cloudy
6:15 PM 19.4 °F 1.1 °F 19.4 °F 100% 29.51 in 2.0 mi SSW 27.6 mph - N/A   Overcast
6:35 PM 21.2 °F 3.9 °F 21.2 °F 100% 29.50 in 1.2 mi SW 26.5 mph 33.4 mph N/A Snow Light Snow
6:55 PM 23.0 °F 6.6 °F 23.0 °F 100% 29.50 in 2.5 mi SW 25.3 mph 31.1 mph N/A   Overcast
7:15 PM 23.0 °F 6.6 °F 23.0 °F 100% 29.48 in 2.0 mi SW 25.3 mph - N/A   Overcast
7:35 PM 24.8 °F 8.4 °F 24.8 °F 100% 29.46 in 1.2 mi SW 27.6 mph 33.4 mph N/A Snow Light Snow
7:55 PM 24.8 °F 8.7 °F 24.8 °F 100% 29.45 in 1.5 mi SW 26.5 mph 35.7 mph 0.01 in Rain Light Freezing Rain
8:15 PM 26.6 °F 11.1 °F 26.6 °F 100% 29.43 in 1.5 mi SW 26.5 mph - N/A Snow Light Snow
8:35 PM 26.6 °F 11.7 °F 26.6 °F 100% 29.43 in 1.8 mi WSW 24.2 mph - 0.02 in Snow Light Snow
8:55 PM 28.4 °F 14.1 °F 28.4 °F 100% 29.42 in 2.5 mi WSW 24.2 mph 28.8 mph 0.02 in   Overcast
9:15 PM 30.2 °F 17.4 °F 30.2 °F 100% 29.42 in 4.0 mi West 20.7 mph 27.6 mph N/A   Overcast
9:35 PM 32.0 °F 19.5 °F 32.0 °F 100% 29.42 in 7.0 mi West 21.9 mph - N/A   Overcast
9:55 PM 32.0 °F 19.5 °F 32.0 °F 100% 29.42 in 9.0 mi West 21.9 mph 27.6 mph N/A   Overcast
10:15 PM 32.0 °F 20.1 °F 32.0 °F 100% 29.43 in 10.0 mi WNW 19.6 mph - N/A   Overcast
10:55 PM 32.0 °F 18.6 °F 32.0 °F 100% 29.44 in 10.0 mi NNW 25.3 mph 32.2 mph N/A   Overcast
11:15 PM 32.0 °F 19.5 °F 32.0 °F 100% 29.45 in 10.0 mi NNW 21.9 mph 29.9 mph N/A   Overcast
11:35 PM 32.0 °F 19.5 °F 30.2 °F 93% 29.46 in 10.0 mi NW 21.9 mph 27.6 mph N/A   Overcast